< < Back
Terminal Aerodrome Forecast


Current Version              Previous Versions:   1  2  3  4  5  6  7  8  9  

Terminal Aerodrome Forecast

228
FTUS42 KILM 280520
TAFFLO
TAF
KFLO 280520Z 2806/2906 00000KT P6SM SKC
     FM281000 04003KT P6SM SCT008 SCT050 BKN250
     FM281300 05008KT P6SM SCT025 SCT080 BKN250
     FM281800 07006KT 6SM -SHRA OVC025
     FM290000 04004KT 4SM SHRA OVC025=

Latest METAR

933
SAUS70 KWBC 280600 RRN
MTRFLO
METAR KFLO 280553Z AUTO 00000KT 10SM CLR 18/15 A3013 RMK AO2 SLP200
T01830150 10267 20178 50000


USA.gov is the U.S. government's official web portal to all federal, state and local government web resources and services.